createdAt,value
2022-11-05T00:03:13.799Z,51.60
2022-11-05T00:10:42.689Z,38.70
2022-11-05T00:18:19.755Z,34.70
2022-11-05T00:20:54.223Z,33.03
2022-11-05T00:26:52.072Z,27.67
2022-11-05T00:29:19.383Z,31.83
2022-11-05T00:31:52.115Z,28.97
2022-11-05T00:34:47.472Z,31.23
2022-11-05T00:40:32.325Z,30.20
2022-11-05T00:43:21.202Z,33.97
2022-11-05T00:45:50.818Z,29.47
2022-11-05T00:49:18.912Z,34.23
2022-11-05T00:52:38.002Z,25.23
2022-11-05T00:55:05.561Z,28.73
2022-11-05T01:01:26.462Z,31.33
2022-11-05T01:04:28.764Z,25.80
2022-11-05T01:12:03.933Z,24.77
2022-11-05T01:14:31.379Z,22.30
2022-11-05T01:17:47.579Z,26.67
2022-11-05T01:21:58.001Z,24.73
2022-11-05T01:24:30.882Z,37.03
2022-11-05T01:26:58.521Z,32.20
2022-11-05T01:30:08.098Z,30.97
2022-11-05T01:32:52.554Z,29.17
2022-11-05T01:35:25.591Z,22.17
2022-11-05T01:54:27.045Z,21.93
2022-11-05T01:57:35.603Z,27.20
2022-11-05T02:00:07.636Z,22.93
2022-11-05T02:02:55.053Z,18.37
2022-11-05T02:12:48.191Z,32.77
2022-11-05T02:13:05.395Z,25.83
2022-11-05T02:16:51.244Z,24.13
2022-11-05T02:20:20.227Z,21.93
2022-11-05T02:28:31.543Z,26.37
2022-11-05T02:32:06.341Z,20.20
2022-11-05T02:35:50.929Z,21.93
2022-11-05T02:39:36.383Z,22.37
2022-11-05T02:43:23.034Z,19.77
2022-11-05T02:50:31.164Z,24.80
2022-11-05T02:53:00.925Z,24.60
2022-11-05T02:55:38.830Z,21.83
2022-11-05T02:58:12.542Z,22.70
2022-11-05T03:08:39.546Z,23.23
2022-11-05T03:11:57.843Z,20.57
2022-11-05T03:15:32.258Z,21.53
2022-11-05T03:18:39.196Z,23.60
2022-11-05T03:22:20.205Z,22.60
2022-11-05T03:25:15.973Z,21.10
2022-11-05T03:28:23.880Z,18.87
2022-11-05T03:31:01.845Z,29.17
2022-11-05T03:37:08.783Z,21.67
2022-11-05T03:42:52.454Z,28.70
2022-11-05T03:46:02.905Z,32.13
2022-11-05T03:48:43.163Z,24.60
2022-11-05T03:52:41.658Z,27.00
2022-11-05T03:55:18.111Z,27.10
2022-11-05T04:01:43.057Z,28.23
2022-11-05T04:05:04.979Z,26.90
2022-11-05T04:11:36.880Z,29.17
2022-11-05T04:14:09.940Z,45.63
2022-11-05T04:24:31.112Z,34.07
2022-11-05T04:27:05.522Z,42.97
2022-11-05T04:30:00.417Z,40.63
2022-11-05T04:32:30.285Z,27.63
2022-11-05T04:34:57.629Z,34.43
2022-11-05T04:37:28.014Z,35.77
2022-11-05T04:40:03.651Z,36.60
2022-11-05T04:42:30.995Z,44.70
2022-11-05T04:45:01.150Z,27.90
2022-11-05T04:47:28.510Z,29.33
2022-11-05T04:52:48.158Z,35.63
2022-11-05T04:55:15.933Z,44.17
2022-11-05T04:57:43.512Z,31.73
2022-11-05T05:00:11.712Z,38.83
2022-11-05T05:02:39.251Z,27.03
2022-11-05T05:05:09.728Z,35.43
2022-11-05T05:07:37.259Z,37.97
2022-11-05T05:10:13.477Z,46.37
2022-11-05T05:12:51.152Z,40.70
2022-11-05T05:15:20.830Z,44.80
2022-11-05T05:17:52.828Z,47.20
2022-11-05T05:20:41.930Z,34.73
2022-11-05T05:23:13.547Z,40.40
2022-11-05T05:25:40.630Z,47.30
2022-11-05T05:28:16.244Z,47.43
2022-11-05T05:31:03.602Z,33.10
2022-11-05T05:33:30.706Z,52.13
2022-11-05T05:36:09.972Z,39.87
2022-11-05T05:38:40.811Z,38.20
2022-11-05T05:41:07.992Z,28.03
2022-11-05T05:47:16.041Z,32.80
2022-11-05T05:50:03.542Z,38.10
2022-11-05T05:52:30.687Z,27.33
2022-11-05T05:55:35.825Z,25.17
2022-11-05T05:59:28.116Z,32.40
2022-11-05T06:02:58.257Z,24.20
2022-11-05T06:08:34.353Z,42.57
2022-11-05T06:14:43.556Z,53.63
2022-11-05T06:17:16.577Z,38.97
2022-11-05T06:20:12.139Z,22.70
2022-11-05T06:22:43.791Z,44.47
2022-11-05T06:25:11.296Z,41.33
2022-11-05T06:28:20.486Z,41.53
2022-11-05T06:30:53.453Z,43.27
2022-11-05T06:33:42.792Z,45.90
2022-11-05T06:36:16.866Z,41.87
2022-11-05T06:38:50.842Z,36.97
2022-11-05T06:41:18.299Z,29.47
2022-11-05T06:44:10.428Z,45.50
2022-11-05T06:46:43.312Z,21.93
2022-11-05T06:49:14.505Z,29.27
2022-11-05T06:51:47.301Z,26.50
2022-11-05T06:54:23.607Z,36.67
2022-11-05T06:56:54.611Z,51.17
2022-11-05T06:59:34.442Z,29.33
2022-11-05T07:02:36.821Z,43.93
2022-11-05T07:05:17.164Z,44.00
2022-11-05T07:07:45.774Z,32.47
2022-11-05T07:10:24.430Z,31.97
2022-11-05T07:12:56.865Z,35.63
2022-11-05T07:15:23.851Z,34.07
2022-11-05T07:17:51.025Z,38.87
2022-11-05T07:20:18.095Z,33.73
2022-11-05T07:22:45.366Z,38.73
2022-11-05T07:25:12.302Z,32.17
2022-11-05T07:27:40.192Z,46.80
2022-11-05T07:30:12.448Z,42.53
2022-11-05T07:32:40.846Z,35.80
2022-11-05T07:35:09.956Z,35.60
2022-11-05T07:37:51.908Z,39.47
2022-11-05T07:40:19.763Z,38.50
2022-11-05T07:42:50.915Z,44.17
2022-11-05T07:45:19.530Z,33.83
2022-11-05T07:47:57.257Z,33.43
2022-11-05T07:50:34.958Z,32.43
2022-11-05T07:53:11.104Z,42.00
2022-11-05T07:55:40.213Z,38.53
2022-11-05T07:58:07.538Z,34.90
2022-11-05T08:00:34.625Z,30.43
2022-11-05T08:03:17.503Z,36.63
2022-11-05T08:05:47.777Z,43.53
2022-11-05T08:08:18.773Z,40.10
2022-11-05T08:10:46.790Z,34.50
2022-11-05T08:13:15.391Z,41.77
2022-11-05T08:15:43.228Z,44.17
2022-11-05T08:18:17.932Z,31.43
2022-11-05T08:20:46.842Z,33.73
2022-11-05T08:23:14.409Z,44.13
2022-11-05T08:25:42.183Z,41.73
2022-11-05T08:28:13.126Z,42.87
2022-11-05T08:30:40.669Z,39.47
2022-11-05T08:33:19.349Z,32.47
2022-11-05T08:35:46.560Z,34.77
2022-11-05T08:38:17.093Z,34.33
2022-11-05T08:40:58.117Z,33.20
2022-11-05T08:43:25.708Z,35.70
2022-11-05T08:45:52.813Z,31.00
2022-11-05T08:48:19.900Z,34.43
2022-11-05T08:50:49.023Z,30.37
2022-11-05T08:53:17.286Z,31.93
2022-11-05T08:55:46.321Z,27.07
2022-11-05T08:58:17.369Z,27.53
2022-11-05T09:00:48.592Z,31.27
2022-11-05T09:03:16.618Z,23.37
2022-11-05T09:05:43.904Z,26.27
2022-11-05T09:08:15.847Z,24.77
2022-11-05T09:10:44.203Z,26.70
2022-11-05T09:13:18.325Z,33.63
2022-11-05T09:15:50.408Z,26.40
2022-11-05T09:18:19.598Z,23.43
2022-11-05T09:20:47.246Z,25.03
2022-11-05T09:23:15.592Z,24.33
2022-11-05T09:25:43.518Z,22.47
2022-11-05T09:28:22.673Z,18.23
2022-11-05T09:30:52.511Z,24.20
2022-11-05T09:33:24.945Z,24.00
2022-11-05T09:35:53.693Z,23.80
2022-11-05T09:38:47.317Z,20.20
2022-11-05T09:41:38.851Z,18.17
2022-11-05T09:44:35.911Z,21.37
2022-11-05T09:47:24.736Z,28.67
2022-11-05T09:49:57.128Z,15.10
2022-11-05T09:52:29.992Z,26.33
2022-11-05T09:55:31.847Z,26.60
2022-11-05T09:58:46.202Z,11.63
2022-11-05T10:01:37.495Z,22.07
2022-11-05T10:07:26.250Z,13.20
2022-11-05T10:11:14.653Z,14.63
2022-11-05T10:18:35.002Z,12.60
2022-11-05T10:21:10.113Z,12.13
2022-11-05T10:23:40.353Z,16.63
2022-11-05T10:26:47.960Z,12.30
2022-11-05T10:29:32.247Z,14.80
2022-11-05T10:32:10.574Z,12.90
2022-11-05T10:41:53.350Z,15.33
2022-11-05T10:48:45.963Z,13.77
2022-11-05T10:51:22.507Z,12.43
2022-11-05T10:54:12.161Z,14.70
2022-11-05T10:56:42.527Z,7.53
2022-11-05T10:59:32.139Z,12.60
2022-11-05T11:02:26.431Z,11.00
2022-11-05T11:05:36.071Z,11.50
2022-11-05T11:08:35.511Z,5.63
2022-11-05T11:11:51.117Z,5.07
2022-11-05T11:14:22.163Z,10.37
2022-11-05T11:20:44.075Z,8.37
2022-11-05T11:29:29.233Z,11.20
2022-11-05T11:32:01.086Z,7.67
2022-11-05T11:34:39.429Z,11.87
2022-11-05T11:37:35.672Z,10.23
2022-11-05T11:40:40.692Z,10.47
2022-11-05T11:43:28.660Z,6.97
2022-11-05T11:46:03.720Z,7.17
2022-11-05T11:48:43.875Z,6.13
2022-11-05T11:51:37.683Z,10.90
2022-11-05T11:54:28.543Z,7.83
2022-11-05T11:57:58.108Z,9.07
2022-11-05T12:01:47.911Z,6.73
2022-11-05T12:05:08.971Z,7.13
2022-11-05T12:08:21.668Z,9.07
2022-11-05T12:11:44.059Z,11.03
2022-11-05T12:15:18.804Z,11.07
2022-11-05T12:19:10.578Z,5.83
2022-11-05T12:22:27.165Z,5.20
2022-11-05T12:25:10.409Z,8.20
2022-11-05T12:28:06.389Z,6.53
2022-11-05T12:31:32.958Z,8.87
2022-11-05T12:34:30.594Z,10.23
2022-11-05T12:37:21.687Z,5.97
2022-11-05T12:40:29.751Z,8.60
2022-11-05T12:43:44.348Z,8.60
2022-11-05T12:47:01.580Z,12.17
2022-11-05T12:50:15.304Z,4.83
2022-11-05T12:53:17.441Z,9.10
2022-11-05T12:55:49.409Z,5.83
2022-11-05T12:58:41.115Z,5.30
2022-11-05T13:01:24.163Z,6.13
2022-11-05T13:04:27.159Z,7.30
2022-11-05T13:06:56.396Z,6.67
2022-11-05T13:09:30.995Z,9.07
2022-11-05T13:12:10.207Z,9.20
2022-11-05T13:14:49.482Z,6.93
2022-11-05T13:17:28.275Z,9.73
2022-11-05T13:20:25.255Z,5.60
2022-11-05T13:23:14.029Z,8.23
2022-11-05T13:25:53.481Z,5.10
2022-11-05T13:28:39.545Z,4.30
2022-11-05T13:31:15.809Z,10.63
2022-11-05T13:33:51.257Z,6.70
2022-11-05T13:36:46.953Z,6.53
2022-11-05T13:39:50.886Z,8.70
2022-11-05T13:43:39.414Z,7.63
2022-11-05T13:47:04.814Z,7.33
2022-11-05T13:50:15.106Z,9.03
2022-11-05T13:53:17.386Z,9.97
2022-11-05T13:56:39.073Z,11.47
2022-11-05T14:00:20.574Z,16.73
2022-11-05T14:03:24.987Z,10.57
2022-11-05T14:06:12.612Z,8.87
2022-11-05T14:08:45.169Z,9.77
2022-11-05T14:11:34.996Z,10.20
2022-11-05T14:14:15.905Z,8.80
2022-11-05T14:17:07.639Z,11.97
2022-11-05T14:20:07.013Z,9.47
2022-11-05T14:22:33.819Z,9.97
2022-11-05T14:25:24.214Z,5.43
2022-11-05T14:27:57.869Z,6.37
2022-11-05T14:30:47.909Z,6.47
2022-11-05T14:33:25.846Z,4.20
2022-11-05T14:36:45.838Z,8.57
2022-11-05T14:39:20.942Z,11.60
2022-11-05T14:42:30.933Z,10.30
2022-11-05T14:49:12.956Z,10.33
2022-11-05T14:51:48.096Z,12.10
2022-11-05T14:55:34.300Z,8.20
2022-11-05T15:02:15.315Z,16.40
2022-11-05T15:05:18.264Z,23.53
2022-11-05T15:08:15.752Z,20.43
2022-11-05T15:10:43.983Z,13.87
2022-11-05T15:13:40.608Z,11.67
2022-11-05T15:16:45.112Z,29.93
2022-11-05T15:19:37.365Z,20.70
2022-11-05T15:22:39.996Z,11.77
2022-11-05T15:29:28.612Z,13.37
2022-11-05T15:33:20.047Z,17.23
2022-11-05T15:36:26.714Z,16.13
2022-11-05T15:39:29.338Z,24.43
2022-11-05T15:42:04.946Z,15.97
2022-11-05T15:44:43.111Z,18.80
2022-11-05T15:47:36.468Z,14.57
2022-11-05T15:54:01.813Z,13.43
2022-11-05T15:56:48.012Z,14.90
2022-11-05T15:59:22.681Z,14.87
2022-11-05T16:02:33.944Z,17.37
2022-11-05T16:05:13.501Z,18.80
2022-11-05T16:07:46.138Z,15.70
2022-11-05T16:10:39.556Z,135.13
2022-11-05T16:13:38.501Z,272.90
2022-11-05T16:16:36.729Z,178.83
2022-11-05T16:19:42.370Z,103.37
2022-11-05T16:22:17.833Z,56.97
2022-11-05T16:24:46.593Z,44.60
2022-11-05T16:27:25.058Z,43.87
2022-11-05T16:29:57.280Z,37.07
2022-11-05T16:32:38.688Z,27.00
2022-11-05T16:35:18.387Z,22.30
2022-11-05T16:37:54.046Z,20.07
2022-11-05T16:40:25.987Z,15.87
2022-11-05T16:43:21.495Z,11.17
2022-11-05T16:45:59.652Z,12.83
2022-11-05T16:48:45.366Z,9.73
2022-11-05T16:51:23.343Z,17.23
2022-11-05T16:53:53.373Z,21.60
2022-11-05T16:56:28.062Z,16.57
2022-11-05T16:59:04.513Z,16.53
2022-11-05T17:01:32.500Z,11.40
2022-11-05T17:03:59.606Z,12.40
2022-11-05T17:06:26.729Z,17.77
2022-11-05T17:09:19.883Z,10.17
2022-11-05T17:11:46.915Z,41.93
2022-11-05T17:14:41.518Z,51.17
2022-11-05T17:17:15.490Z,19.57
2022-11-05T17:20:39.897Z,18.03
2022-11-05T17:23:15.662Z,17.33
2022-11-05T17:26:26.805Z,20.17
2022-11-05T17:29:02.437Z,15.43
2022-11-05T17:31:36.216Z,17.53
2022-11-05T17:34:09.721Z,11.40
2022-11-05T17:36:37.138Z,13.67
2022-11-05T17:39:10.036Z,12.77
2022-11-05T17:41:37.247Z,12.33
2022-11-05T17:44:04.246Z,10.30
2022-11-05T17:46:31.421Z,11.10
2022-11-05T17:49:02.869Z,13.40
2022-11-05T17:51:35.831Z,10.90
2022-11-05T17:54:11.806Z,13.50
2022-11-05T17:56:50.372Z,21.27
2022-11-05T17:59:20.717Z,25.10
2022-11-05T18:02:17.352Z,17.63
2022-11-05T18:04:50.644Z,19.63
2022-11-05T18:07:26.803Z,18.40
2022-11-05T18:09:59.165Z,19.37
2022-11-05T18:12:35.710Z,18.53
2022-11-05T18:16:01.708Z,19.83
2022-11-05T18:18:31.822Z,22.27
2022-11-05T18:21:00.300Z,14.07
2022-11-05T18:23:54.905Z,18.37
2022-11-05T18:26:21.849Z,19.33
2022-11-05T18:29:10.285Z,14.83
2022-11-05T18:31:40.338Z,16.57
2022-11-05T18:36:56.871Z,13.77
2022-11-05T18:39:25.697Z,22.00
2022-11-05T18:41:52.817Z,16.80
2022-11-05T18:44:27.801Z,16.67
2022-11-05T18:50:30.474Z,19.73
2022-11-05T18:54:25.244Z,20.20
2022-11-05T18:57:17.339Z,17.30
2022-11-05T19:00:40.868Z,17.37
2022-11-05T19:03:25.820Z,20.37
2022-11-05T19:06:22.441Z,19.23
2022-11-05T19:08:51.853Z,14.33
2022-11-05T19:11:27.748Z,17.60
2022-11-05T19:14:03.180Z,16.87
2022-11-05T19:16:35.119Z,19.63
2022-11-05T19:22:29.230Z,11.67
2022-11-05T19:28:39.398Z,23.70
2022-11-05T19:31:19.723Z,13.13
2022-11-05T19:33:49.337Z,18.63
2022-11-05T19:36:20.521Z,16.37
2022-11-05T19:38:53.243Z,17.83
2022-11-05T19:41:25.902Z,20.10
2022-11-05T19:43:57.014Z,15.60
2022-11-05T19:46:39.462Z,16.00
2022-11-05T19:49:07.123Z,8.10
2022-11-05T19:51:34.797Z,14.80
2022-11-05T19:54:11.634Z,15.13
2022-11-05T19:57:12.519Z,19.87
2022-11-05T19:59:45.574Z,26.40
2022-11-05T20:02:16.186Z,11.97
2022-11-05T20:04:49.548Z,15.13
2022-11-05T20:07:51.321Z,13.57
2022-11-05T20:10:45.771Z,16.47
2022-11-05T20:13:18.577Z,14.57
2022-11-05T20:15:50.064Z,17.10
2022-11-05T20:18:28.121Z,17.93
2022-11-05T20:21:09.151Z,13.57
2022-11-05T20:23:36.585Z,14.97
2022-11-05T20:26:11.954Z,15.70
2022-11-05T20:28:41.042Z,17.90
2022-11-05T20:31:17.641Z,23.23
2022-11-05T20:33:46.424Z,17.77
2022-11-05T20:36:19.164Z,12.03
2022-11-05T20:38:58.243Z,17.97
2022-11-05T20:41:26.453Z,19.43
2022-11-05T20:43:54.300Z,12.93
2022-11-05T20:46:23.413Z,16.20
2022-11-05T20:48:51.516Z,17.40
2022-11-05T20:51:22.933Z,20.83
2022-11-05T20:53:55.297Z,26.67
2022-11-05T20:56:27.110Z,21.00
2022-11-05T20:58:59.101Z,24.17
2022-11-05T21:01:30.400Z,31.17
2022-11-05T21:03:57.925Z,15.10
2022-11-05T21:06:25.018Z,21.60
2022-11-05T21:08:52.802Z,14.70
2022-11-05T21:11:20.739Z,28.87
2022-11-05T21:13:48.327Z,24.23
2022-11-05T21:16:18.967Z,25.83
2022-11-05T21:18:47.612Z,22.33
2022-11-05T21:21:20.168Z,18.47
2022-11-05T21:23:47.709Z,21.23
2022-11-05T21:26:16.902Z,20.23
2022-11-05T21:28:43.990Z,21.87
2022-11-05T21:31:13.939Z,21.63
2022-11-05T21:33:41.197Z,15.90
2022-11-05T21:36:12.943Z,24.27
2022-11-05T21:38:42.980Z,25.33
2022-11-05T21:41:11.693Z,26.47
2022-11-05T21:43:43.519Z,12.13
2022-11-05T21:46:13.338Z,19.60
2022-11-05T21:48:40.343Z,19.87
2022-11-05T21:51:31.328Z,24.27
2022-11-05T21:54:25.271Z,24.77
2022-11-05T21:57:11.204Z,23.20
2022-11-05T21:59:55.435Z,25.33
2022-11-05T22:02:28.542Z,30.97
2022-11-05T22:04:59.736Z,16.80
2022-11-05T22:07:41.313Z,20.87
2022-11-05T22:10:16.127Z,29.80
2022-11-05T22:12:44.893Z,26.57
2022-11-05T22:15:17.904Z,27.53
2022-11-05T22:17:47.130Z,17.40
2022-11-05T22:20:16.633Z,16.13
2022-11-05T22:22:43.951Z,21.70
2022-11-05T22:25:12.807Z,26.80
2022-11-05T22:27:39.867Z,21.30
2022-11-05T22:30:07.732Z,17.67
2022-11-05T22:32:34.968Z,21.90
2022-11-05T22:35:02.456Z,16.93
2022-11-05T22:37:29.995Z,20.10
2022-11-05T22:39:56.963Z,20.77
2022-11-05T22:42:23.962Z,16.50
2022-11-05T22:44:51.011Z,20.97
2022-11-05T22:47:18.270Z,16.97
2022-11-05T22:49:45.904Z,19.40
2022-11-05T22:52:12.853Z,19.03
2022-11-05T22:54:39.915Z,19.77
2022-11-05T22:57:06.892Z,12.03
2022-11-05T22:59:34.036Z,24.00
2022-11-05T23:02:06.549Z,16.10
2022-11-05T23:04:36.301Z,22.03
2022-11-05T23:07:27.313Z,25.53
2022-11-05T23:10:13.467Z,16.40
2022-11-05T23:12:44.277Z,14.47
2022-11-05T23:15:31.720Z,21.23
2022-11-05T23:18:17.242Z,15.93
2022-11-05T23:21:02.770Z,18.90
2022-11-05T23:23:48.109Z,19.80
2022-11-05T23:26:36.426Z,14.33
2022-11-05T23:29:06.592Z,25.37
2022-11-05T23:31:55.336Z,17.83
2022-11-05T23:34:22.260Z,20.80
2022-11-05T23:37:08.191Z,23.87
2022-11-05T23:39:41.276Z,26.67
2022-11-05T23:42:28.983Z,26.00
2022-11-05T23:45:15.067Z,15.67
2022-11-05T23:48:03.288Z,14.50
2022-11-05T23:50:35.562Z,13.70
2022-11-05T23:53:04.132Z,12.63
2022-11-05T23:55:31.466Z,13.17
2022-11-05T23:58:01.282Z,23.80
